Station Historical Data
Daily Summary for July 7, 2017 Units:  Both    English   Metric
« Previous Day
Next Day »
Daily Weekly Monthly Yearly Custom
  High: Low: Average:
Temperature: 79.4 °F /  26.3 °C 67.4 °F /  19.7 °C 73.3 °F /  22.9 °C
Dew Point: 70.0 °F /  21.1 °C 60.6 °F /  15.9 °C 65.8 °F /  18.8 °C
Humidity: 87% 63% 78%
Wind Speed: 10.0mph /  16.1km/h - 4mph /  6.4km/h
Wind Gust: 20.0mph /  32.2km/h - -
Wind- - SW
Pressure: 29.86 in /  1011.1 hPa 29.70 in /  1005.6 hPa -
Precipitation: 0.00 in /  0 mm    
Historical Graphs
 
 
Tabular Data for July 7, 2017
Time Temperature Dew Point Pressure Wind Wind Speed Wind Gust Humidity Rainfall Rate (Hourly)
00:04 74.0 °F /  23.3 °C 60.6 °F /  15.9 °C 29.86in /  1011.1hPa Calm   3.0mph /  4.8km/h 63% 0.00in /  0mm
00:09 73.8 °F /  23.2 °C 60.9 °F /  16.1 °C 29.86in /  1011.1hPa Calm   3.0mph /  4.8km/h 64% 0.00in /  0mm
00:14 73.9 °F /  23.3 °C 61.0 °F /  16.1 °C 29.86in /  1011.1hPa SW 2.0mph /  3.2km/h 5.0mph /  8km/h 64% 0.00in /  0mm
00:19 74.2 °F /  23.4 °C 61.2 °F /  16.2 °C 29.86in /  1011.1hPa SW 1.0mph /  1.6km/h 6.0mph /  9.7km/h 64% 0.00in /  0mm
00:24 74.2 °F /  23.4 °C 61.2 °F /  16.2 °C 29.85in /  1010.7hPa SSW 3.0mph /  4.8km/h 5.0mph /  8km/h 64% 0.00in /  0mm
00:29 74.1 °F /  23.4 °C 61.1 °F /  16.2 °C 29.85in /  1010.7hPa SSW 3.0mph /  4.8km/h 8.0mph /  12.9km/h 64% 0.00in /  0mm
00:34 73.9 °F /  23.3 °C 61.4 °F /  16.3 °C 29.84in /  1010.4hPa SSW 2.0mph /  3.2km/h 8.0mph /  12.9km/h 65% 0.00in /  0mm
00:39 73.7 °F /  23.2 °C 61.2 °F /  16.2 °C 29.85in /  1010.7hPa SSW 2.0mph /  3.2km/h 5.0mph /  8km/h 65% 0.00in /  0mm
00:44 73.3 °F /  22.9 °C 61.3 °F /  16.3 °C 29.84in /  1010.4hPa SSW 1.0mph /  1.6km/h 5.0mph /  8km/h 66% 0.00in /  0mm
00:49 73.2 °F /  22.9 °C 61.6 °F /  16.4 °C 29.84in /  1010.4hPa SW 1.0mph /  1.6km/h 4.0mph /  6.4km/h 67% 0.00in /  0mm
00:54 73.2 °F /  22.9 °C 62.0 °F /  16.7 °C 29.85in /  1010.7hPa WSW 1.0mph /  1.6km/h 6.0mph /  9.7km/h 68% 0.00in /  0mm
00:59 73.3 °F /  22.9 °C 62.1 °F /  16.7 °C 29.84in /  1010.4hPa SW 1.0mph /  1.6km/h 5.0mph /  8km/h 68% 0.00in /  0mm
01:04 73.2 °F /  22.9 °C 62.4 °F /  16.9 °C 29.84in /  1010.4hPa WSW 1.0mph /  1.6km/h 5.0mph /  8km/h 69% 0.00in /  0mm
01:09 73.1 °F /  22.8 °C 63.1 °F /  17.3 °C 29.84in /  1010.4hPa SW 1.0mph /  1.6km/h 4.0mph /  6.4km/h 71% 0.00in /  0mm
01:14 72.9 °F /  22.7 °C 63.7 °F /  17.6 °C 29.84in /  1010.4hPa SW 2.0mph /  3.2km/h 5.0mph /  8km/h 73% 0.00in /  0mm
01:19 72.9 °F /  22.7 °C 64.1 °F /  17.8 °C 29.84in /  1010.4hPa SW 4.0mph /  6.4km/h 5.0mph /  8km/h 74% 0.00in /  0mm
01:24 72.9 °F /  22.7 °C 64.5 °F /  18.1 °C 29.84in /  1010.4hPa Calm   5.0mph /  8km/h 75% 0.00in /  0mm
01:29 72.8 °F /  22.7 °C 64.8 °F /  18.2 °C 29.84in /  1010.4hPa SW 2.0mph /  3.2km/h 6.0mph /  9.7km/h 76% 0.00in /  0mm
01:34 72.7 °F /  22.6 °C 64.7 °F /  18.2 °C 29.84in /  1010.4hPa SW 3.0mph /  4.8km/h 6.0mph /  9.7km/h 76% 0.00in /  0mm
01:39 72.6 °F /  22.6 °C 65.0 °F /  18.3 °C 29.84in /  1010.4hPa SW 1.0mph /  1.6km/h 5.0mph /  8km/h 77% 0.00in /  0mm
01:44 72.4 °F /  22.4 °C 64.8 °F /  18.2 °C 29.84in /  1010.4hPa SW 1.0mph /  1.6km/h 5.0mph /  8km/h 77% 0.00in /  0mm
01:49 72.3 °F /  22.4 °C 64.7 °F /  18.2 °C 29.84in /  1010.4hPa SW 2.0mph /  3.2km/h 5.0mph /  8km/h 77% 0.00in /  0mm
01:54 72.1 °F /  22.3 °C 64.9 °F /  18.3 °C 29.84in /  1010.4hPa SW 3.0mph /  4.8km/h 5.0mph /  8km/h 78% 0.00in /  0mm
01:59 72.2 °F /  22.3 °C 65.3 °F /  18.5 °C 29.84in /  1010.4hPa SW 3.0mph /  4.8km/h 7.0mph /  11.3km/h 79% 0.00in /  0mm
02:04 72.1 °F /  22.3 °C 65.2 °F /  18.4 °C 29.84in /  1010.4hPa SW 3.0mph /  4.8km/h 7.0mph /  11.3km/h 79% 0.00in /  0mm
02:09 72.2 °F /  22.3 °C 65.3 °F /  18.5 °C 29.84in /  1010.4hPa SW 3.0mph /  4.8km/h 7.0mph /  11.3km/h 79% 0.00in /  0mm
02:14 72.2 °F /  22.3 °C 65.3 °F /  18.5 °C 29.84in /  1010.4hPa SW 3.0mph /  4.8km/h 7.0mph /  11.3km/h 79% 0.00in /  0mm
02:19 72.1 °F /  22.3 °C 65.6 °F /  18.7 °C 29.84in /  1010.4hPa West 2.0mph /  3.2km/h 7.0mph /  11.3km/h 80% 0.00in /  0mm
02:24 71.9 °F /  22.2 °C 65.4 °F /  18.6 °C 29.84in /  1010.4hPa SW 4.0mph /  6.4km/h 6.0mph /  9.7km/h 80% 0.00in /  0mm
02:29 71.8 °F /  22.1 °C 65.3 °F /  18.5 °C 29.84in /  1010.4hPa SW 3.0mph /  4.8km/h 7.0mph /  11.3km/h 80% 0.00in /  0mm
02:34 71.6 °F /  22 °C 65.5 °F /  18.6 °C 29.84in /  1010.4hPa SW 3.0mph /  4.8km/h 7.0mph /  11.3km/h 81% 0.00in /  0mm
02:39 71.4 °F /  21.9 °C 65.3 °F /  18.5 °C 29.84in /  1010.4hPa WSW 4.0mph /  6.4km/h 5.0mph /  8km/h 81% 0.00in /  0mm
02:45 71.4 °F /  21.9 °C 65.3 °F /  18.5 °C 29.83in /  1010hPa SW 4.0mph /  6.4km/h 5.0mph /  8km/h 81% 0.00in /  0mm
02:54 71.2 °F /  21.8 °C 65.1 °F /  18.4 °C 29.83in /  1010hPa SW 2.0mph /  3.2km/h 5.0mph /  8km/h 81% 0.00in /  0mm
02:59 71.0 °F /  21.7 °C 64.9 °F /  18.3 °C 29.82in /  1009.7hPa SW 2.0mph /  3.2km/h 8.0mph /  12.9km/h 81% 0.00in /  0mm
03:04 71.0 °F /  21.7 °C 64.9 °F /  18.3 °C 29.83in /  1010hPa SW 3.0mph /  4.8km/h 9.0mph /  14.5km/h 81% 0.00in /  0mm
03:09 70.9 °F /  21.6 °C 65.1 °F /  18.4 °C 29.83in /  1010hPa WSW 4.0mph /  6.4km/h 8.0mph /  12.9km/h 82% 0.00in /  0mm
03:14 70.9 °F /  21.6 °C 65.1 °F /  18.4 °C 29.82in /  1009.7hPa SW 3.0mph /  4.8km/h 8.0mph /  12.9km/h 82% 0.00in /  0mm
03:19 70.8 °F /  21.6 °C 65.0 °F /  18.3 °C 29.82in /  1009.7hPa SW 1.0mph /  1.6km/h 7.0mph /  11.3km/h 82% 0.00in /  0mm
03:24 70.8 °F /  21.6 °C 65.0 °F /  18.3 °C 29.82in /  1009.7hPa SW 3.0mph /  4.8km/h 7.0mph /  11.3km/h 82% 0.00in /  0mm
03:29 70.7 °F /  21.5 °C 64.9 °F /  18.3 °C 29.82in /  1009.7hPa SW 3.0mph /  4.8km/h 6.0mph /  9.7km/h 82% 0.00in /  0mm
03:34 70.7 °F /  21.5 °C 64.9 °F /  18.3 °C 29.82in /  1009.7hPa SW 3.0mph /  4.8km/h 8.0mph /  12.9km/h 82% 0.00in /  0mm
03:39 70.5 °F /  21.4 °C 64.7 °F /  18.2 °C 29.82in /  1009.7hPa SW 4.0mph /  6.4km/h 8.0mph /  12.9km/h 82% 0.00in /  0mm
03:44 70.4 °F /  21.3 °C 64.6 °F /  18.1 °C 29.81in /  1009.4hPa SW 4.0mph /  6.4km/h 7.0mph /  11.3km/h 82% 0.00in /  0mm
03:49 70.4 °F /  21.3 °C 64.6 °F /  18.1 °C 29.81in /  1009.4hPa SSW 2.0mph /  3.2km/h 8.0mph /  12.9km/h 82% 0.00in /  0mm
03:54 70.3 °F /  21.3 °C 64.5 °F /  18.1 °C 29.81in /  1009.4hPa SW 4.0mph /  6.4km/h 8.0mph /  12.9km/h 82% 0.00in /  0mm
03:59 70.1 °F /  21.2 °C 64.3 °F /  17.9 °C 29.81in /  1009.4hPa SSW 1.0mph /  1.6km/h 8.0mph /  12.9km/h 82% 0.00in /  0mm
04:04 70.1 °F /  21.2 °C 64.3 °F /  17.9 °C 29.80in /  1009hPa SW 1.0mph /  1.6km/h 5.0mph /  8km/h 82% 0.00in /  0mm
04:09 70.0 °F /  21.1 °C 64.2 °F /  17.9 °C 29.80in /  1009hPa SW 4.0mph /  6.4km/h 6.0mph /  9.7km/h 82% 0.00in /  0mm
04:14 69.9 °F /  21.1 °C 64.2 °F /  17.9 °C 29.80in /  1009hPa SW 4.0mph /  6.4km/h 7.0mph /  11.3km/h 82% 0.00in /  0mm
04:19 69.9 °F /  21.1 °C 64.2 °F /  17.9 °C 29.79in /  1008.7hPa South 2.0mph /  3.2km/h 6.0mph /  9.7km/h 82% 0.00in /  0mm
04:24 69.8 °F /  21 °C 64.1 °F /  17.8 °C 29.79in /  1008.7hPa SSW 3.0mph /  4.8km/h 7.0mph /  11.3km/h 82% 0.00in /  0mm
04:29 69.7 °F /  20.9 °C 64.0 °F /  17.8 °C 29.79in /  1008.7hPa SSW 3.0mph /  4.8km/h 7.0mph /  11.3km/h 82% 0.00in /  0mm
04:34 69.6 °F /  20.9 °C 63.5 °F /  17.5 °C 29.79in /  1008.7hPa SSW 2.0mph /  3.2km/h 6.0mph /  9.7km/h 81% 0.00in /  0mm
04:39 69.5 °F /  20.8 °C 63.8 °F /  17.7 °C 29.79in /  1008.7hPa SSW 2.0mph /  3.2km/h 7.0mph /  11.3km/h 82% 0.00in /  0mm
04:44 69.5 °F /  20.8 °C 63.4 °F /  17.4 °C 29.78in /  1008.4hPa SW 3.0mph /  4.8km/h 5.0mph /  8km/h 81% 0.00in /  0mm
04:49 69.4 °F /  20.8 °C 63.3 °F /  17.4 °C 29.78in /  1008.4hPa SW 2.0mph /  3.2km/h 7.0mph /  11.3km/h 81% 0.00in /  0mm
04:54 69.3 °F /  20.7 °C 63.2 °F /  17.3 °C 29.78in /  1008.4hPa SW 2.0mph /  3.2km/h 7.0mph /  11.3km/h 81% 0.00in /  0mm
04:59 69.1 °F /  20.6 °C 63.0 °F /  17.2 °C 29.78in /  1008.4hPa SW 2.0mph /  3.2km/h 7.0mph /  11.3km/h 81% 0.00in /  0mm
05:04 69.0 °F /  20.6 °C 63.3 °F /  17.4 °C 29.78in /  1008.4hPa SW 2.0mph /  3.2km/h 7.0mph /  11.3km/h 82% 0.00in /  0mm
05:09 69.0 °F /  20.6 °C 63.3 °F /  17.4 °C 29.77in /  1008hPa SW 2.0mph /  3.2km/h 5.0mph /  8km/h 82% 0.00in /  0mm
05:14 68.9 °F /  20.5 °C 63.2 °F /  17.3 °C 29.77in /  1008hPa Calm   5.0mph /  8km/h 82% 0.00in /  0mm
05:19 68.7 °F /  20.4 °C 63.0 °F /  17.2 °C 29.77in /  1008hPa SSW 1.0mph /  1.6km/h 5.0mph /  8km/h 82% 0.00in /  0mm
05:24 68.5 °F /  20.3 °C 62.8 °F /  17.1 °C 29.76in /  1007.7hPa Calm   3.0mph /  4.8km/h 82% 0.00in /  0mm
05:29 68.2 °F /  20.1 °C 62.8 °F /  17.1 °C 29.76in /  1007.7hPa Calm   4.0mph /  6.4km/h 83% 0.00in /  0mm
05:34 68.1 °F /  20.1 °C 62.7 °F /  17.1 °C 29.76in /  1007.7hPa South 4.0mph /  6.4km/h 4.0mph /  6.4km/h 83% 0.00in /  0mm
05:39 68.0 °F /  20 °C 62.6 °F /  17 °C 29.76in /  1007.7hPa SSW 1.0mph /  1.6km/h 4.0mph /  6.4km/h 83% 0.00in /  0mm
05:44 67.9 °F /  19.9 °C 62.5 °F /  16.9 °C 29.77in /  1008hPa SSW 2.0mph /  3.2km/h 4.0mph /  6.4km/h 83% 0.00in /  0mm
05:49 67.7 °F /  19.8 °C 62.3 °F /  16.8 °C 29.78in /  1008.4hPa SSW 1.0mph /  1.6km/h 4.0mph /  6.4km/h 83% 0.00in /  0mm
05:54 67.7 °F /  19.8 °C 62.3 °F /  16.8 °C 29.78in /  1008.4hPa SSW 1.0mph /  1.6km/h 3.0mph /  4.8km/h 83% 0.00in /  0mm
05:59 67.5 °F /  19.7 °C 62.5 °F /  16.9 °C 29.79in /  1008.7hPa Calm     84% 0.00in /  0mm
06:04 67.4 °F /  19.7 °C 62.4 °F /  16.9 °C 29.79in /  1008.7hPa Calm     84% 0.00in /  0mm
06:09 67.4 °F /  19.7 °C 62.4 °F /  16.9 °C 29.78in /  1008.4hPa Calm     84% 0.00in /  0mm
06:14 67.6 °F /  19.8 °C 62.9 °F /  17.2 °C 29.79in /  1008.7hPa Calm   3.0mph /  4.8km/h 85% 0.00in /  0mm
06:19 67.8 °F /  19.9 °C 63.1 °F /  17.3 °C 29.79in /  1008.7hPa Calm   3.0mph /  4.8km/h 85% 0.00in /  0mm
06:24 68.3 °F /  20.2 °C 63.3 °F /  17.4 °C 29.79in /  1008.7hPa SW 1.0mph /  1.6km/h 4.0mph /  6.4km/h 84% 0.00in /  0mm
06:29 68.4 °F /  20.2 °C 63.4 °F /  17.4 °C 29.79in /  1008.7hPa SW 1.0mph /  1.6km/h 4.0mph /  6.4km/h 84% 0.00in /  0mm
06:34 68.8 °F /  20.4 °C 63.4 °F /  17.4 °C 29.79in /  1008.7hPa SW 3.0mph /  4.8km/h 6.0mph /  9.7km/h 83% 0.00in /  0mm
06:39 69.2 °F /  20.7 °C 63.8 °F /  17.7 °C 29.78in /  1008.4hPa Calm   5.0mph /  8km/h 83% 0.00in /  0mm
06:44 69.4 °F /  20.8 °C 64.0 °F /  17.8 °C 29.79in /  1008.7hPa SW 1.0mph /  1.6km/h 5.0mph /  8km/h 83% 0.00in /  0mm
06:49 69.7 °F /  20.9 °C 64.0 °F /  17.8 °C 29.79in /  1008.7hPa SW 2.0mph /  3.2km/h 7.0mph /  11.3km/h 82% 0.00in /  0mm
06:54 70.0 °F /  21.1 °C 64.2 °F /  17.9 °C 29.79in /  1008.7hPa SW 2.0mph /  3.2km/h 7.0mph /  11.3km/h 82% 0.00in /  0mm
06:59 70.3 °F /  21.3 °C 64.2 °F /  17.9 °C 29.79in /  1008.7hPa SW 3.0mph /  4.8km/h 6.0mph /  9.7km/h 81% 0.00in /  0mm
07:04 70.6 °F /  21.4 °C 64.5 °F /  18.1 °C 29.79in /  1008.7hPa SW 3.0mph /  4.8km/h 8.0mph /  12.9km/h 81% 0.00in /  0mm
07:09 70.9 °F /  21.6 °C 64.4 °F /  18 °C 29.79in /  1008.7hPa SW 3.0mph /  4.8km/h 9.0mph /  14.5km/h 80% 0.00in /  0mm
07:14 71.2 °F /  21.8 °C 64.7 °F /  18.2 °C 29.79in /  1008.7hPa SW 3.0mph /  4.8km/h 9.0mph /  14.5km/h 80% 0.00in /  0mm
07:19 71.4 °F /  21.9 °C 64.5 °F /  18.1 °C 29.79in /  1008.7hPa SSW 7.0mph /  11.3km/h 8.0mph /  12.9km/h 79% 0.00in /  0mm
07:24 71.5 °F /  21.9 °C 64.6 °F /  18.1 °C 29.79in /  1008.7hPa West 4.0mph /  6.4km/h 7.0mph /  11.3km/h 79% 0.00in /  0mm
07:29 71.9 °F /  22.2 °C 64.7 °F /  18.2 °C 29.79in /  1008.7hPa SSW 4.0mph /  6.4km/h 9.0mph /  14.5km/h 78% 0.00in /  0mm
07:34 72.2 °F /  22.3 °C 65.0 °F /  18.3 °C 29.79in /  1008.7hPa SW 4.0mph /  6.4km/h 10.0mph /  16.1km/h 78% 0.00in /  0mm
07:39 72.1 °F /  22.3 °C 64.5 °F /  18.1 °C 29.79in /  1008.7hPa SW 3.0mph /  4.8km/h 10.0mph /  16.1km/h 77% 0.00in /  0mm
07:44 72.4 °F /  22.4 °C 64.8 °F /  18.2 °C 29.79in /  1008.7hPa SW 4.0mph /  6.4km/h 10.0mph /  16.1km/h 77% 0.00in /  0mm
07:49 73.0 °F /  22.8 °C 65.0 °F /  18.3 °C 29.79in /  1008.7hPa SW 3.0mph /  4.8km/h 8.0mph /  12.9km/h 76% 0.00in /  0mm
07:54 73.2 °F /  22.9 °C 65.2 °F /  18.4 °C 29.79in /  1008.7hPa WSW 4.0mph /  6.4km/h 8.0mph /  12.9km/h 76% 0.00in /  0mm
07:59 73.4 °F /  23 °C 65.4 °F /  18.6 °C 29.79in /  1008.7hPa West 2.0mph /  3.2km/h 9.0mph /  14.5km/h 76% 0.00in /  0mm
08:04 73.3 °F /  22.9 °C 64.9 °F /  18.3 °C 29.78in /  1008.4hPa West 3.0mph /  4.8km/h 10.0mph /  16.1km/h 75% 0.00in /  0mm
08:09 73.2 °F /  22.9 °C 65.2 °F /  18.4 °C 29.79in /  1008.7hPa WSW 4.0mph /  6.4km/h 10.0mph /  16.1km/h 76% 0.00in /  0mm
08:14 73.7 °F /  23.2 °C 65.7 °F /  18.7 °C 29.79in /  1008.7hPa WSW 4.0mph /  6.4km/h 9.0mph /  14.5km/h 76% 0.00in /  0mm
08:19 73.7 °F /  23.2 °C 65.7 °F /  18.7 °C 29.79in /  1008.7hPa WSW 4.0mph /  6.4km/h 9.0mph /  14.5km/h 76% 0.00in /  0mm
08:24 73.7 °F /  23.2 °C 65.7 °F /  18.7 °C 29.80in /  1009hPa WSW 4.0mph /  6.4km/h 9.0mph /  14.5km/h 76% 0.00in /  0mm
08:29 73.4 °F /  23 °C 65.0 °F /  18.3 °C 29.80in /  1009hPa WSW 4.0mph /  6.4km/h 9.0mph /  14.5km/h 75% 0.00in /  0mm
08:34 73.5 °F /  23.1 °C 65.5 °F /  18.6 °C 29.79in /  1008.7hPa SW 5.0mph /  8km/h 9.0mph /  14.5km/h 76% 0.00in /  0mm
08:39 73.7 °F /  23.2 °C 65.3 °F /  18.5 °C 29.79in /  1008.7hPa WSW 5.0mph /  8km/h 10.0mph /  16.1km/h 75% 0.00in /  0mm
08:44 73.7 °F /  23.2 °C 65.3 °F /  18.5 °C 29.80in /  1009hPa WSW 5.0mph /  8km/h 10.0mph /  16.1km/h 75% 0.00in /  0mm
08:49 73.6 °F /  23.1 °C 65.6 °F /  18.7 °C 29.80in /  1009hPa SW 4.0mph /  6.4km/h 10.0mph /  16.1km/h 76% 0.00in /  0mm
08:54 73.6 °F /  23.1 °C 65.6 °F /  18.7 °C 29.80in /  1009hPa SW 3.0mph /  4.8km/h 7.0mph /  11.3km/h 76% 0.00in /  0mm
08:59 73.1 °F /  22.8 °C 65.1 °F /  18.4 °C 29.79in /  1008.7hPa WSW 6.0mph /  9.7km/h 8.0mph /  12.9km/h 76% 0.00in /  0mm
09:04 72.9 °F /  22.7 °C 65.3 °F /  18.5 °C 29.80in /  1009hPa WSW 4.0mph /  6.4km/h 6.0mph /  9.7km/h 77% 0.00in /  0mm
09:09 72.7 °F /  22.6 °C 65.1 °F /  18.4 °C 29.80in /  1009hPa WSW 5.0mph /  8km/h 9.0mph /  14.5km/h 77% 0.00in /  0mm
09:14 72.3 °F /  22.4 °C 65.1 °F /  18.4 °C 29.80in /  1009hPa SW 5.0mph /  8km/h 9.0mph /  14.5km/h 78% 0.00in /  0mm
09:19 72.1 °F /  22.3 °C 65.2 °F /  18.4 °C 29.80in /  1009hPa SW 5.0mph /  8km/h 9.0mph /  14.5km/h 79% 0.00in /  0mm
09:24 72.0 °F /  22.2 °C 65.5 °F /  18.6 °C 29.79in /  1008.7hPa WSW 4.0mph /  6.4km/h 9.0mph /  14.5km/h 80% 0.00in /  0mm
09:29 71.7 °F /  22.1 °C 65.9 °F /  18.8 °C 29.80in /  1009hPa SW 7.0mph /  11.3km/h 8.0mph /  12.9km/h 82% 0.00in /  0mm
09:34 71.2 °F /  21.8 °C 65.8 °F /  18.8 °C 29.80in /  1009hPa SW 6.0mph /  9.7km/h 7.0mph /  11.3km/h 83% 0.01in /  0.25mm
09:39 70.8 °F /  21.6 °C 65.7 °F /  18.7 °C 29.79in /  1008.7hPa SW 2.0mph /  3.2km/h 6.0mph /  9.7km/h 84% 0.01in /  0.25mm
09:44 70.6 °F /  21.4 °C 65.9 °F /  18.8 °C 29.79in /  1008.7hPa WSW 3.0mph /  4.8km/h 6.0mph /  9.7km/h 85% 0.01in /  0.25mm
09:49 70.6 °F /  21.4 °C 66.2 °F /  19 °C 29.79in /  1008.7hPa SSW 5.0mph /  8km/h 7.0mph /  11.3km/h 86% 0.01in /  0.25mm
09:54 70.5 °F /  21.4 °C 66.1 °F /  18.9 °C 29.79in /  1008.7hPa SW 5.0mph /  8km/h 6.0mph /  9.7km/h 86% 0.01in /  0.25mm
09:59 70.4 °F /  21.3 °C 66.3 °F /  19.1 °C 29.79in /  1008.7hPa SW 5.0mph /  8km/h 7.0mph /  11.3km/h 87% 0.01in /  0.25mm
10:04 70.4 °F /  21.3 °C 66.3 °F /  19.1 °C 29.79in /  1008.7hPa WSW 4.0mph /  6.4km/h 9.0mph /  14.5km/h 87% 0.01in /  0.25mm
10:09 70.0 °F /  21.1 °C 66.0 °F /  18.9 °C 29.78in /  1008.4hPa SW 4.0mph /  6.4km/h 9.0mph /  14.5km/h 87% 0.01in /  0.25mm
10:14 69.9 °F /  21.1 °C 65.9 °F /  18.8 °C 29.78in /  1008.4hPa SW 3.0mph /  4.8km/h 7.0mph /  11.3km/h 87% 0.01in /  0.25mm
10:19 70.1 °F /  21.2 °C 65.7 °F /  18.7 °C 29.78in /  1008.4hPa SW 3.0mph /  4.8km/h 7.0mph /  11.3km/h 86% 0.01in /  0.25mm
10:24 70.3 °F /  21.3 °C 65.6 °F /  18.7 °C 29.78in /  1008.4hPa SW 3.0mph /  4.8km/h 6.0mph /  9.7km/h 85% 0.01in /  0.25mm
10:29 71.2 °F /  21.8 °C 66.5 °F /  19.2 °C 29.78in /  1008.4hPa SW 3.0mph /  4.8km/h 6.0mph /  9.7km/h 85% 0.01in /  0.25mm
10:34 71.6 °F /  22 °C 66.2 °F /  19 °C 29.78in /  1008.4hPa SW 3.0mph /  4.8km/h 6.0mph /  9.7km/h 83% 0.00in /  0mm
10:39 71.9 °F /  22.2 °C 65.8 °F /  18.8 °C 29.78in /  1008.4hPa SSW 3.0mph /  4.8km/h 7.0mph /  11.3km/h 81% 0.00in /  0mm
10:44 72.1 °F /  22.3 °C 64.5 °F /  18.1 °C 29.78in /  1008.4hPa SSW 3.0mph /  4.8km/h 7.0mph /  11.3km/h 77% 0.00in /  0mm
10:49 73.2 °F /  22.9 °C 64.8 °F /  18.2 °C 29.77in /  1008hPa SSW 6.0mph /  9.7km/h 8.0mph /  12.9km/h 75% 0.00in /  0mm
10:54 73.2 °F /  22.9 °C 64.4 °F /  18 °C 29.77in /  1008hPa SSW 5.0mph /  8km/h 9.0mph /  14.5km/h 74% 0.00in /  0mm
10:59 74.1 °F /  23.4 °C 65.3 °F /  18.5 °C 29.77in /  1008hPa South 5.0mph /  8km/h 7.0mph /  11.3km/h 74% 0.00in /  0mm
11:04 74.1 °F /  23.4 °C 64.9 °F /  18.3 °C 29.77in /  1008hPa South 6.0mph /  9.7km/h 8.0mph /  12.9km/h 73% 0.00in /  0mm
11:09 73.4 °F /  23 °C 65.0 °F /  18.3 °C 29.77in /  1008hPa SSW 4.0mph /  6.4km/h 8.0mph /  12.9km/h 75% 0.00in /  0mm
11:14 73.2 °F /  22.9 °C 65.2 °F /  18.4 °C 29.77in /  1008hPa SSW 4.0mph /  6.4km/h 7.0mph /  11.3km/h 76% 0.00in /  0mm
11:19 73.7 °F /  23.2 °C 65.7 °F /  18.7 °C 29.77in /  1008hPa South 4.0mph /  6.4km/h 11.0mph /  17.7km/h 76% 0.00in /  0mm
11:24 73.6 °F /  23.1 °C 65.2 °F /  18.4 °C 29.77in /  1008hPa South 5.0mph /  8km/h 11.0mph /  17.7km/h 75% 0.00in /  0mm
11:29 74.2 °F /  23.4 °C 66.1 °F /  18.9 °C 29.77in /  1008hPa South 3.0mph /  4.8km/h 7.0mph /  11.3km/h 76% 0.00in /  0mm
11:34 74.6 °F /  23.7 °C 65.8 °F /  18.8 °C 29.77in /  1008hPa SW 4.0mph /  6.4km/h 9.0mph /  14.5km/h 74% 0.00in /  0mm
11:39 75.0 °F /  23.9 °C 66.1 °F /  18.9 °C 29.76in /  1007.7hPa South 4.0mph /  6.4km/h 9.0mph /  14.5km/h 74% 0.00in /  0mm
11:44 75.6 °F /  24.2 °C 66.3 °F /  19.1 °C 29.77in /  1008hPa South 3.0mph /  4.8km/h 8.0mph /  12.9km/h 73% 0.00in /  0mm
11:49 75.3 °F /  24.1 °C 66.4 °F /  19.1 °C 29.77in /  1008hPa SSW 3.0mph /  4.8km/h 8.0mph /  12.9km/h 74% 0.00in /  0mm
11:54 74.9 °F /  23.8 °C 66.1 °F /  18.9 °C 29.77in /  1008hPa SW 4.0mph /  6.4km/h 9.0mph /  14.5km/h 74% 0.00in /  0mm
11:59 74.5 °F /  23.6 °C 66.1 °F /  18.9 °C 29.77in /  1008hPa SSE 3.0mph /  4.8km/h 9.0mph /  14.5km/h 75% 0.00in /  0mm
12:04 74.3 °F /  23.5 °C 66.2 °F /  19 °C 29.77in /  1008hPa SSW 5.0mph /  8km/h 7.0mph /  11.3km/h 76% 0.00in /  0mm
12:09 74.3 °F /  23.5 °C 66.2 °F /  19 °C 29.76in /  1007.7hPa SSW 4.0mph /  6.4km/h 8.0mph /  12.9km/h 76% 0.00in /  0mm
12:14 75.0 °F /  23.9 °C 66.9 °F /  19.4 °C 29.76in /  1007.7hPa SW 4.0mph /  6.4km/h 7.0mph /  11.3km/h 76% 0.00in /  0mm
12:19 75.1 °F /  23.9 °C 67.0 °F /  19.4 °C 29.76in /  1007.7hPa WSW 5.0mph /  8km/h 7.0mph /  11.3km/h 76% 0.00in /  0mm
12:24 75.3 °F /  24.1 °C 67.2 °F /  19.6 °C 29.76in /  1007.7hPa South 3.0mph /  4.8km/h 8.0mph /  12.9km/h 76% 0.00in /  0mm
12:29 75.8 °F /  24.3 °C 67.7 °F /  19.8 °C 29.76in /  1007.7hPa SW 4.0mph /  6.4km/h 6.0mph /  9.7km/h 76% 0.00in /  0mm
12:34 75.6 °F /  24.2 °C 67.9 °F /  19.9 °C 29.76in /  1007.7hPa SSW 4.0mph /  6.4km/h 8.0mph /  12.9km/h 77% 0.00in /  0mm
12:39 75.1 °F /  23.9 °C 67.4 °F /  19.7 °C 29.76in /  1007.7hPa SW 4.0mph /  6.4km/h 8.0mph /  12.9km/h 77% 0.00in /  0mm
12:44 75.5 °F /  24.2 °C 68.2 °F /  20.1 °C 29.76in /  1007.7hPa SW 3.0mph /  4.8km/h 7.0mph /  11.3km/h 78% 0.00in /  0mm
12:49 76.1 °F /  24.5 °C 68.7 °F /  20.4 °C 29.76in /  1007.7hPa SW 4.0mph /  6.4km/h 8.0mph /  12.9km/h 78% 0.00in /  0mm
12:54 76.5 °F /  24.7 °C 68.4 °F /  20.2 °C 29.76in /  1007.7hPa SW 4.0mph /  6.4km/h 9.0mph /  14.5km/h 76% 0.00in /  0mm
12:59 76.0 °F /  24.4 °C 67.9 °F /  19.9 °C 29.76in /  1007.7hPa WSW 5.0mph /  8km/h 9.0mph /  14.5km/h 76% 0.00in /  0mm
13:04 76.6 °F /  24.8 °C 68.8 °F /  20.4 °C 29.76in /  1007.7hPa West 5.0mph /  8km/h 11.0mph /  17.7km/h 77% 0.00in /  0mm
13:09 77.6 °F /  25.3 °C 69.4 °F /  20.8 °C 29.76in /  1007.7hPa SW 6.0mph /  9.7km/h 9.0mph /  14.5km/h 76% 0.00in /  0mm
13:14 76.9 °F /  24.9 °C 68.4 °F /  20.2 °C 29.76in /  1007.7hPa SW 2.0mph /  3.2km/h 9.0mph /  14.5km/h 75% 0.00in /  0mm
13:19 76.4 °F /  24.7 °C 68.3 °F /  20.2 °C 29.76in /  1007.7hPa SW 1.0mph /  1.6km/h 9.0mph /  14.5km/h 76% 0.00in /  0mm
13:24 76.7 °F /  24.8 °C 68.6 °F /  20.3 °C 29.76in /  1007.7hPa SW 2.0mph /  3.2km/h 7.0mph /  11.3km/h 76% 0.00in /  0mm
13:29 76.7 °F /  24.8 °C 68.2 °F /  20.1 °C 29.75in /  1007.3hPa SSW 5.0mph /  8km/h 8.0mph /  12.9km/h 75% 0.00in /  0mm
13:34 76.6 °F /  24.8 °C 68.1 °F /  20.1 °C 29.75in /  1007.3hPa WSW 5.0mph /  8km/h 9.0mph /  14.5km/h 75% 0.00in /  0mm
13:39 77.0 °F /  25 °C 68.9 °F /  20.5 °C 29.75in /  1007.3hPa WSW 5.0mph /  8km/h 9.0mph /  14.5km/h 76% 0.00in /  0mm
13:44 77.5 °F /  25.3 °C 68.9 °F /  20.5 °C 29.75in /  1007.3hPa SW 5.0mph /  8km/h 11.0mph /  17.7km/h 75% 0.00in /  0mm
13:49 77.5 °F /  25.3 °C 69.3 °F /  20.7 °C 29.75in /  1007.3hPa SW 6.0mph /  9.7km/h 11.0mph /  17.7km/h 76% 0.00in /  0mm
13:54 77.9 °F /  25.5 °C 68.9 °F /  20.5 °C 29.75in /  1007.3hPa SW 5.0mph /  8km/h 10.0mph /  16.1km/h 74% 0.00in /  0mm
13:59 77.3 °F /  25.2 °C 68.4 °F /  20.2 °C 29.75in /  1007.3hPa West 2.0mph /  3.2km/h 8.0mph /  12.9km/h 74% 0.00in /  0mm
14:04 77.4 °F /  25.2 °C 68.9 °F /  20.5 °C 29.75in /  1007.3hPa South 5.0mph /  8km/h 10.0mph /  16.1km/h 75% 0.00in /  0mm
14:09 77.0 °F /  25 °C 68.9 °F /  20.5 °C 29.75in /  1007.3hPa SW 5.0mph /  8km/h 10.0mph /  16.1km/h 76% 0.00in /  0mm
14:14 77.0 °F /  25 °C 68.9 °F /  20.5 °C 29.75in /  1007.3hPa SW 5.0mph /  8km/h 12.0mph /  19.3km/h 76% 0.00in /  0mm
14:19 78.6 °F /  25.9 °C 70.0 °F /  21.1 °C 29.75in /  1007.3hPa WSW 5.0mph /  8km/h 9.0mph /  14.5km/h 75% 0.00in /  0mm
14:24 79.0 °F /  26.1 °C 69.2 °F /  20.7 °C 29.75in /  1007.3hPa SSW 5.0mph /  8km/h 12.0mph /  19.3km/h 72% 0.00in /  0mm
14:29 77.9 °F /  25.5 °C 68.5 °F /  20.3 °C 29.75in /  1007.3hPa West 4.0mph /  6.4km/h 12.0mph /  19.3km/h 73% 0.00in /  0mm
14:34 78.8 °F /  26 °C 69.8 °F /  21 °C 29.75in /  1007.3hPa WSW 6.0mph /  9.7km/h 12.0mph /  19.3km/h 74% 0.00in /  0mm
14:39 78.7 °F /  25.9 °C 68.9 °F /  20.5 °C 29.76in /  1007.7hPa West 9.0mph /  14.5km/h 14.0mph /  22.5km/h 72% 0.00in /  0mm
14:44 78.9 °F /  26.1 °C 69.5 °F /  20.8 °C 29.75in /  1007.3hPa SW 7.0mph /  11.3km/h 14.0mph /  22.5km/h 73% 0.00in /  0mm
14:49 78.4 °F /  25.8 °C 69.0 °F /  20.6 °C 29.75in /  1007.3hPa SW 6.0mph /  9.7km/h 14.0mph /  22.5km/h 73% 0.00in /  0mm
14:54 78.5 °F /  25.8 °C 68.7 °F /  20.4 °C 29.75in /  1007.3hPa SW 6.0mph /  9.7km/h 11.0mph /  17.7km/h 72% 0.00in /  0mm
14:59 78.0 °F /  25.6 °C 68.2 °F /  20.1 °C 29.75in /  1007.3hPa SW 7.0mph /  11.3km/h 13.0mph /  20.9km/h 72% 0.00in /  0mm
15:04 78.5 °F /  25.8 °C 68.7 °F /  20.4 °C 29.74in /  1007hPa WSW 7.0mph /  11.3km/h 13.0mph /  20.9km/h 72% 0.00in /  0mm
15:09 78.2 °F /  25.7 °C 68.4 °F /  20.2 °C 29.75in /  1007.3hPa SW 7.0mph /  11.3km/h 15.0mph /  24.1km/h 72% 0.00in /  0mm
15:14 79.4 °F /  26.3 °C 69.2 °F /  20.7 °C 29.75in /  1007.3hPa SW 6.0mph /  9.7km/h 15.0mph /  24.1km/h 71% 0.00in /  0mm
15:19 78.7 °F /  25.9 °C 68.5 °F /  20.3 °C 29.75in /  1007.3hPa SSW 4.0mph /  6.4km/h 15.0mph /  24.1km/h 71% 0.00in /  0mm
15:24 78.3 °F /  25.7 °C 68.9 °F /  20.5 °C 29.75in /  1007.3hPa SW 6.0mph /  9.7km/h 15.0mph /  24.1km/h 73% 0.00in /  0mm
15:29 78.2 °F /  25.7 °C 68.4 °F /  20.2 °C 29.75in /  1007.3hPa South 8.0mph /  12.9km/h 11.0mph /  17.7km/h 72% 0.00in /  0mm
15:34 76.9 °F /  24.9 °C 68.0 °F /  20 °C 29.75in /  1007.3hPa SW 9.0mph /  14.5km/h 13.0mph /  20.9km/h 74% 0.00in /  0mm
15:39 77.5 °F /  25.3 °C 68.6 °F /  20.3 °C 29.75in /  1007.3hPa SW 7.0mph /  11.3km/h 10.0mph /  16.1km/h 74% 0.00in /  0mm
15:44 78.1 °F /  25.6 °C 68.3 °F /  20.2 °C 29.74in /  1007hPa WSW 5.0mph /  8km/h 15.0mph /  24.1km/h 72% 0.00in /  0mm
15:49 77.9 °F /  25.5 °C 68.1 °F /  20.1 °C 29.75in /  1007.3hPa WNW 7.0mph /  11.3km/h 15.0mph /  24.1km/h 72% 0.00in /  0mm
15:54 77.4 °F /  25.2 °C 67.7 °F /  19.8 °C 29.75in /  1007.3hPa SSW 5.0mph /  8km/h 16.0mph /  25.7km/h 72% 0.00in /  0mm
15:59 77.0 °F /  25 °C 67.3 °F /  19.6 °C 29.75in /  1007.3hPa SW 8.0mph /  12.9km/h 16.0mph /  25.7km/h 72% 0.00in /  0mm
16:04 77.3 °F /  25.2 °C 67.6 °F /  19.8 °C 29.75in /  1007.3hPa SW 7.0mph /  11.3km/h 15.0mph /  24.1km/h 72% 0.00in /  0mm
16:09 77.1 °F /  25.1 °C 67.0 °F /  19.4 °C 29.75in /  1007.3hPa SW 7.0mph /  11.3km/h 17.0mph /  27.4km/h 71% 0.00in /  0mm
16:14 76.2 °F /  24.6 °C 66.9 °F /  19.4 °C 29.74in /  1007hPa SW 7.0mph /  11.3km/h 17.0mph /  27.4km/h 73% 0.00in /  0mm
16:19 77.6 °F /  25.3 °C 67.4 °F /  19.7 °C 29.74in /  1007hPa West 7.0mph /  11.3km/h 14.0mph /  22.5km/h 71% 0.00in /  0mm
16:24 78.2 °F /  25.7 °C 67.6 °F /  19.8 °C 29.73in /  1006.7hPa West 5.0mph /  8km/h 13.0mph /  20.9km/h 70% 0.00in /  0mm
16:29 78.3 °F /  25.7 °C 66.4 °F /  19.1 °C 29.73in /  1006.7hPa SW 3.0mph /  4.8km/h 13.0mph /  20.9km/h 67% 0.00in /  0mm
16:34 78.0 °F /  25.6 °C 67.0 °F /  19.4 °C 29.74in /  1007hPa WSW 7.0mph /  11.3km/h 13.0mph /  20.9km/h 69% 0.00in /  0mm
16:39 77.3 °F /  25.2 °C 66.7 °F /  19.3 °C 29.73in /  1006.7hPa SW 7.0mph /  11.3km/h 17.0mph /  27.4km/h 70% 0.00in /  0mm
16:44 77.4 °F /  25.2 °C 67.7 °F /  19.8 °C 29.73in /  1006.7hPa WNW 7.0mph /  11.3km/h 14.0mph /  22.5km/h 72% 0.00in /  0mm
16:49 77.7 °F /  25.4 °C 66.7 °F /  19.3 °C 29.73in /  1006.7hPa West 7.0mph /  11.3km/h 15.0mph /  24.1km/h 69% 0.00in /  0mm
16:54 77.3 °F /  25.2 °C 66.7 °F /  19.3 °C 29.72in /  1006.3hPa WSW 9.0mph /  14.5km/h 16.0mph /  25.7km/h 70% 0.00in /  0mm
16:59 76.9 °F /  24.9 °C 66.4 °F /  19.1 °C 29.73in /  1006.7hPa WSW 8.0mph /  12.9km/h 19.0mph /  30.6km/h 70% 0.00in /  0mm
17:04 76.7 °F /  24.8 °C 67.0 °F /  19.4 °C 29.73in /  1006.7hPa WSW 8.0mph /  12.9km/h 19.0mph /  30.6km/h 72% 0.00in /  0mm
17:09 76.8 °F /  24.9 °C 67.1 °F /  19.5 °C 29.73in /  1006.7hPa WSW 8.0mph /  12.9km/h 16.0mph /  25.7km/h 72% 0.00in /  0mm
17:14 76.7 °F /  24.8 °C 67.4 °F /  19.7 °C 29.73in /  1006.7hPa WSW 8.0mph /  12.9km/h 14.0mph /  22.5km/h 73% 0.00in /  0mm
17:19 76.2 °F /  24.6 °C 66.5 °F /  19.2 °C 29.73in /  1006.7hPa West 6.0mph /  9.7km/h 17.0mph /  27.4km/h 72% 0.00in /  0mm
17:24 76.6 °F /  24.8 °C 67.7 °F /  19.8 °C 29.73in /  1006.7hPa WNW 8.0mph /  12.9km/h 14.0mph /  22.5km/h 74% 0.00in /  0mm
17:29 76.3 °F /  24.6 °C 66.6 °F /  19.2 °C 29.73in /  1006.7hPa SW 7.0mph /  11.3km/h 14.0mph /  22.5km/h 72% 0.00in /  0mm
17:34 76.1 °F /  24.5 °C 66.4 °F /  19.1 °C 29.72in /  1006.3hPa SW 8.0mph /  12.9km/h 15.0mph /  24.1km/h 72% 0.00in /  0mm
17:39 76.4 °F /  24.7 °C 66.7 °F /  19.3 °C 29.72in /  1006.3hPa SW 8.0mph /  12.9km/h 17.0mph /  27.4km/h 72% 0.00in /  0mm
17:44 76.0 °F /  24.4 °C 66.7 °F /  19.3 °C 29.72in /  1006.3hPa West 10.0mph /  16.1km/h 14.0mph /  22.5km/h 73% 0.00in /  0mm
17:49 75.7 °F /  24.3 °C 66.4 °F /  19.1 °C 29.72in /  1006.3hPa SW 8.0mph /  12.9km/h 15.0mph /  24.1km/h 73% 0.00in /  0mm
17:54 75.6 °F /  24.2 °C 65.9 °F /  18.8 °C 29.72in /  1006.3hPa West 6.0mph /  9.7km/h 14.0mph /  22.5km/h 72% 0.00in /  0mm
17:59 75.8 °F /  24.3 °C 66.1 °F /  18.9 °C 29.72in /  1006.3hPa WSW 7.0mph /  11.3km/h 14.0mph /  22.5km/h 72% 0.00in /  0mm
18:04 76.0 °F /  24.4 °C 65.9 °F /  18.8 °C 29.72in /  1006.3hPa WSW 6.0mph /  9.7km/h 16.0mph /  25.7km/h 71% 0.00in /  0mm
18:09 76.3 °F /  24.6 °C 65.4 °F /  18.6 °C 29.72in /  1006.3hPa WSW 6.0mph /  9.7km/h 20.0mph /  32.2km/h 69% 0.00in /  0mm
18:14 75.9 °F /  24.4 °C 65.4 °F /  18.6 °C 29.72in /  1006.3hPa West 8.0mph /  12.9km/h 13.0mph /  20.9km/h 70% 0.00in /  0mm
18:19 75.8 °F /  24.3 °C 65.3 °F /  18.5 °C 29.72in /  1006.3hPa West 6.0mph /  9.7km/h 14.0mph /  22.5km/h 70% 0.00in /  0mm
18:24 75.6 °F /  24.2 °C 65.1 °F /  18.4 °C 29.72in /  1006.3hPa WNW 9.0mph /  14.5km/h 14.0mph /  22.5km/h 70% 0.00in /  0mm
18:29 75.5 °F /  24.2 °C 65.4 °F /  18.6 °C 29.72in /  1006.3hPa WSW 7.0mph /  11.3km/h 14.0mph /  22.5km/h 71% 0.00in /  0mm
18:34 75.4 °F /  24.1 °C 64.9 °F /  18.3 °C 29.72in /  1006.3hPa WSW 6.0mph /  9.7km/h 13.0mph /  20.9km/h 70% 0.00in /  0mm
18:39 75.0 °F /  23.9 °C 64.5 °F /  18.1 °C 29.72in /  1006.3hPa SW 7.0mph /  11.3km/h 14.0mph /  22.5km/h 70% 0.00in /  0mm
18:44 74.4 °F /  23.6 °C 64.4 °F /  18 °C 29.72in /  1006.3hPa SW 7.0mph /  11.3km/h 14.0mph /  22.5km/h 71% 0.00in /  0mm
18:49 74.5 °F /  23.6 °C 64.9 °F /  18.3 °C 29.72in /  1006.3hPa WSW 7.0mph /  11.3km/h 12.0mph /  19.3km/h 72% 0.00in /  0mm
18:54 74.4 °F /  23.6 °C 64.8 °F /  18.2 °C 29.73in /  1006.7hPa WSW 4.0mph /  6.4km/h 11.0mph /  17.7km/h 72% 0.00in /  0mm
18:59 74.7 °F /  23.7 °C 65.1 °F /  18.4 °C 29.72in /  1006.3hPa WSW 6.0mph /  9.7km/h 13.0mph /  20.9km/h 72% 0.00in /  0mm
19:04 74.2 °F /  23.4 °C 65.0 °F /  18.3 °C 29.72in /  1006.3hPa SSW 3.0mph /  4.8km/h 12.0mph /  19.3km/h 73% 0.00in /  0mm
19:09 74.0 °F /  23.3 °C 65.2 °F /  18.4 °C 29.72in /  1006.3hPa South 4.0mph /  6.4km/h 13.0mph /  20.9km/h 74% 0.00in /  0mm
19:14 73.9 °F /  23.3 °C 65.1 °F /  18.4 °C 29.72in /  1006.3hPa SW 4.0mph /  6.4km/h 12.0mph /  19.3km/h 74% 0.00in /  0mm
19:19 74.0 °F /  23.3 °C 65.2 °F /  18.4 °C 29.72in /  1006.3hPa SSW 7.0mph /  11.3km/h 11.0mph /  17.7km/h 74% 0.00in /  0mm
19:24 74.2 °F /  23.4 °C 65.0 °F /  18.3 °C 29.73in /  1006.7hPa SSW 3.0mph /  4.8km/h 11.0mph /  17.7km/h 73% 0.00in /  0mm
19:29 74.2 °F /  23.4 °C 64.6 °F /  18.1 °C 29.72in /  1006.3hPa SW 5.0mph /  8km/h 10.0mph /  16.1km/h 72% 0.00in /  0mm
19:34 73.9 °F /  23.3 °C 64.3 °F /  17.9 °C 29.72in /  1006.3hPa SW 6.0mph /  9.7km/h 10.0mph /  16.1km/h 72% 0.00in /  0mm
19:39 73.7 °F /  23.2 °C 64.1 °F /  17.8 °C 29.72in /  1006.3hPa SW 6.0mph /  9.7km/h 15.0mph /  24.1km/h 72% 0.00in /  0mm
19:44 73.7 °F /  23.2 °C 64.5 °F /  18.1 °C 29.72in /  1006.3hPa SW 5.0mph /  8km/h 15.0mph /  24.1km/h 73% 0.00in /  0mm
19:49 73.6 °F /  23.1 °C 64.4 °F /  18 °C 29.72in /  1006.3hPa SW 5.0mph /  8km/h 13.0mph /  20.9km/h 73% 0.00in /  0mm
19:54 73.5 °F /  23.1 °C 64.3 °F /  17.9 °C 29.72in /  1006.3hPa WSW 6.0mph /  9.7km/h 13.0mph /  20.9km/h 73% 0.00in /  0mm
19:59 73.4 °F /  23 °C 64.6 °F /  18.1 °C 29.72in /  1006.3hPa SW 5.0mph /  8km/h 10.0mph /  16.1km/h 74% 0.00in /  0mm
20:04 73.2 °F /  22.9 °C 64.8 °F /  18.2 °C 29.72in /  1006.3hPa SSE 3.0mph /  4.8km/h 8.0mph /  12.9km/h 75% 0.00in /  0mm
20:09 73.1 °F /  22.8 °C 65.1 °F /  18.4 °C 29.72in /  1006.3hPa SW 2.0mph /  3.2km/h 13.0mph /  20.9km/h 76% 0.00in /  0mm
20:14 73.0 °F /  22.8 °C 65.0 °F /  18.3 °C 29.72in /  1006.3hPa West 9.0mph /  14.5km/h 12.0mph /  19.3km/h 76% 0.00in /  0mm
20:19 73.0 °F /  22.8 °C 65.7 °F /  18.7 °C 29.72in /  1006.3hPa WSW 5.0mph /  8km/h 12.0mph /  19.3km/h 78% 0.00in /  0mm
20:24 72.9 °F /  22.7 °C 65.6 °F /  18.7 °C 29.72in /  1006.3hPa SW 3.0mph /  4.8km/h 10.0mph /  16.1km/h 78% 0.00in /  0mm
20:29 72.7 °F /  22.6 °C 65.8 °F /  18.8 °C 29.72in /  1006.3hPa SW 2.0mph /  3.2km/h 12.0mph /  19.3km/h 79% 0.00in /  0mm
20:34 72.6 °F /  22.6 °C 66.1 °F /  18.9 °C 29.72in /  1006.3hPa SW 5.0mph /  8km/h 12.0mph /  19.3km/h 80% 0.00in /  0mm
20:39 72.6 °F /  22.6 °C 66.4 °F /  19.1 °C 29.72in /  1006.3hPa SW 5.0mph /  8km/h 11.0mph /  17.7km/h 81% 0.00in /  0mm
20:44 72.4 °F /  22.4 °C 66.2 °F /  19 °C 29.71in /  1006hPa SW 4.0mph /  6.4km/h 9.0mph /  14.5km/h 81% 0.00in /  0mm
20:49 72.4 °F /  22.4 °C 66.6 °F /  19.2 °C 29.71in /  1006hPa SW 1.0mph /  1.6km/h 11.0mph /  17.7km/h 82% 0.00in /  0mm
20:54 72.4 °F /  22.4 °C 66.9 °F /  19.4 °C 29.71in /  1006hPa SW 7.0mph /  11.3km/h 14.0mph /  22.5km/h 83% 0.00in /  0mm
20:59 72.4 °F /  22.4 °C 66.9 °F /  19.4 °C 29.71in /  1006hPa SW 5.0mph /  8km/h 14.0mph /  22.5km/h 83% 0.00in /  0mm
21:04 72.3 °F /  22.4 °C 66.8 °F /  19.3 °C 29.71in /  1006hPa SW 5.0mph /  8km/h 10.0mph /  16.1km/h 83% 0.00in /  0mm
21:09 72.2 °F /  22.3 °C 66.7 °F /  19.3 °C 29.71in /  1006hPa SW 5.0mph /  8km/h 12.0mph /  19.3km/h 83% 0.00in /  0mm
21:14 72.2 °F /  22.3 °C 67.1 °F /  19.5 °C 29.71in /  1006hPa WSW 5.0mph /  8km/h 12.0mph /  19.3km/h 84% 0.00in /  0mm
21:19 72.2 °F /  22.3 °C 67.1 °F /  19.5 °C 29.71in /  1006hPa SW 4.0mph /  6.4km/h 13.0mph /  20.9km/h 84% 0.00in /  0mm
21:24 72.2 °F /  22.3 °C 67.1 °F /  19.5 °C 29.71in /  1006hPa WSW 4.0mph /  6.4km/h 10.0mph /  16.1km/h 84% 0.00in /  0mm
21:29 72.2 °F /  22.3 °C 67.1 °F /  19.5 °C 29.72in /  1006.3hPa SW 5.0mph /  8km/h 10.0mph /  16.1km/h 84% 0.00in /  0mm
21:34 72.2 °F /  22.3 °C 67.1 °F /  19.5 °C 29.73in /  1006.7hPa SSW 8.0mph /  12.9km/h 10.0mph /  16.1km/h 84% 0.00in /  0mm
21:39 72.1 °F /  22.3 °C 67.0 °F /  19.4 °C 29.73in /  1006.7hPa SW 4.0mph /  6.4km/h 12.0mph /  19.3km/h 84% 0.00in /  0mm
21:44 72.1 °F /  22.3 °C 67.0 °F /  19.4 °C 29.73in /  1006.7hPa WSW 5.0mph /  8km/h 11.0mph /  17.7km/h 84% 0.00in /  0mm
21:49 72.1 °F /  22.3 °C 67.0 °F /  19.4 °C 29.73in /  1006.7hPa SW 3.0mph /  4.8km/h 10.0mph /  16.1km/h 84% 0.00in /  0mm
21:54 72.1 °F /  22.3 °C 67.0 °F /  19.4 °C 29.73in /  1006.7hPa West 6.0mph /  9.7km/h 9.0mph /  14.5km/h 84% 0.00in /  0mm
21:59 72.1 °F /  22.3 °C 67.0 °F /  19.4 °C 29.72in /  1006.3hPa WSW 4.0mph /  6.4km/h 9.0mph /  14.5km/h 84% 0.00in /  0mm
22:04 72.1 °F /  22.3 °C 67.0 °F /  19.4 °C 29.72in /  1006.3hPa WSW 4.0mph /  6.4km/h 7.0mph /  11.3km/h 84% 0.00in /  0mm
22:09 72.1 °F /  22.3 °C 67.0 °F /  19.4 °C 29.72in /  1006.3hPa SW 4.0mph /  6.4km/h 7.0mph /  11.3km/h 84% 0.00in /  0mm
22:14 72.1 °F /  22.3 °C 67.3 °F /  19.6 °C 29.72in /  1006.3hPa SW 4.0mph /  6.4km/h 9.0mph /  14.5km/h 85% 0.00in /  0mm
22:19 72.1 °F /  22.3 °C 67.3 °F /  19.6 °C 29.72in /  1006.3hPa SW 4.0mph /  6.4km/h 9.0mph /  14.5km/h 85% 0.00in /  0mm
22:24 72.1 °F /  22.3 °C 67.3 °F /  19.6 °C 29.72in /  1006.3hPa SW 5.0mph /  8km/h 10.0mph /  16.1km/h 85% 0.00in /  0mm
22:29 72.1 °F /  22.3 °C 67.3 °F /  19.6 °C 29.72in /  1006.3hPa WSW 7.0mph /  11.3km/h 9.0mph /  14.5km/h 85% 0.00in /  0mm
22:34 72.1 °F /  22.3 °C 67.3 °F /  19.6 °C 29.71in /  1006hPa SW 5.0mph /  8km/h 11.0mph /  17.7km/h 85% 0.00in /  0mm
22:39 72.2 °F /  22.3 °C 67.8 °F /  19.9 °C 29.71in /  1006hPa WSW 7.0mph /  11.3km/h 9.0mph /  14.5km/h 86% 0.00in /  0mm
22:44 72.2 °F /  22.3 °C 67.8 °F /  19.9 °C 29.71in /  1006hPa SW 5.0mph /  8km/h 10.0mph /  16.1km/h 86% 0.00in /  0mm
22:49 72.3 °F /  22.4 °C 67.9 °F /  19.9 °C 29.72in /  1006.3hPa WSW 3.0mph /  4.8km/h 13.0mph /  20.9km/h 86% 0.00in /  0mm
22:54 72.3 °F /  22.4 °C 67.9 °F /  19.9 °C 29.72in /  1006.3hPa WNW 3.0mph /  4.8km/h 13.0mph /  20.9km/h 86% 0.00in /  0mm
22:59 72.4 °F /  22.4 °C 68.0 °F /  20 °C 29.72in /  1006.3hPa West 4.0mph /  6.4km/h 13.0mph /  20.9km/h 86% 0.00in /  0mm
23:04 72.3 °F /  22.4 °C 67.9 °F /  19.9 °C 29.71in /  1006hPa West 3.0mph /  4.8km/h 7.0mph /  11.3km/h 86% 0.00in /  0mm
23:09 72.4 °F /  22.4 °C 68.0 °F /  20 °C 29.71in /  1006hPa West 3.0mph /  4.8km/h 7.0mph /  11.3km/h 86% 0.00in /  0mm
23:14 72.4 °F /  22.4 °C 68.0 °F /  20 °C 29.71in /  1006hPa West 3.0mph /  4.8km/h 7.0mph /  11.3km/h 86% 0.00in /  0mm
23:19 72.4 °F /  22.4 °C 67.6 °F /  19.8 °C 29.71in /  1006hPa SW 3.0mph /  4.8km/h 6.0mph /  9.7km/h 85% 0.00in /  0mm
23:24 72.6 °F /  22.6 °C 67.8 °F /  19.9 °C 29.71in /  1006hPa SW 3.0mph /  4.8km/h 6.0mph /  9.7km/h 85% 0.00in /  0mm
23:29 72.4 °F /  22.4 °C 68.0 °F /  20 °C 29.70in /  1005.6hPa SW 2.0mph /  3.2km/h 10.0mph /  16.1km/h 86% 0.00in /  0mm
23:34 72.4 °F /  22.4 °C 68.0 °F /  20 °C 29.70in /  1005.6hPa SSW 1.0mph /  1.6km/h 5.0mph /  8km/h 86% 0.00in /  0mm
23:39 72.4 °F /  22.4 °C 68.0 °F /  20 °C 29.70in /  1005.6hPa SW 1.0mph /  1.6km/h 5.0mph /  8km/h 86% 0.00in /  0mm
23:44 72.3 °F /  22.4 °C 67.9 °F /  19.9 °C 29.70in /  1005.6hPa SW 2.0mph /  3.2km/h 8.0mph /  12.9km/h 86% 0.00in /  0mm
23:49 72.3 °F /  22.4 °C 67.9 °F /  19.9 °C 29.70in /  1005.6hPa SW 4.0mph /  6.4km/h 7.0mph /  11.3km/h 86% 0.00in /  0mm
23:54 72.3 °F /  22.4 °C 67.9 °F /  19.9 °C 29.70in /  1005.6hPa SW 4.0mph /  6.4km/h 4.0mph /  6.4km/h 86% 0.00in /  0mm
23:59 72.2 °F /  22.3 °C 67.8 °F /  19.9 °C 29.70in /  1005.6hPa SW 3.0mph /  4.8km/h 9.0mph /  14.5km/h 86% 0.00in /  0mm
Buffalo, New York, USA
Compliments of Weather Underground - 2.5 mb